Time;durP1;ratioP1;P1;durP2;ratioP2;P2;SDS_P1;SDS_P2;PMS_P1;PMS_P2;Temp;Humidity;BMP_temperature;BMP_pressure;BME280_temperature;BME280_humidity;BME280_pressure;Samples;Min_cycle;Max_cycle;Signal;HPM_P1;HPM_P2
2023/04/26 00:00:23;;;;;;;0.20;0.20;;;3.80;99.90;;;;;;5015925;28;20450;-74
2023/04/26 00:02:49;;;;;;;0.20;0.20;;;3.70;99.90;;;;;;5015347;28;20095;-74
2023/04/26 00:05:15;;;;;;;0.20;0.20;;;3.70;99.90;;;;;;5015759;28;20030;-74
2023/04/26 00:07:41;;;;;;;0.28;0.28;;;3.60;99.90;;;;;;5003297;28;20477;-74
2023/04/26 00:10:09;;;;;;;0.20;0.20;;;3.70;99.90;;;;;;4978626;28;20026;-74
2023/04/26 00:12:35;;;;;;;0.20;0.20;;;3.80;99.90;;;;;;4996085;28;20080;-74
2023/04/26 00:15:02;;;;;;;0.20;0.20;;;3.90;99.90;;;;;;4996069;28;20077;-74
2023/04/26 00:17:28;;;;;;;0.30;0.30;;;4.00;99.90;;;;;;4995586;28;20397;-74
2023/04/26 00:19:56;;;;;;;0.28;0.28;;;4.00;99.90;;;;;;4995858;28;20153;-74
2023/04/26 00:22:22;;;;;;;0.20;0.20;;;4.00;99.90;;;;;;4995971;28;20022;-74
2023/04/26 00:24:47;;;;;;;0.20;0.20;;;4.00;99.90;;;;;;4996131;28;20101;-74
2023/04/26 00:27:13;;;;;;;0.20;0.20;;;3.90;99.90;;;;;;4978463;28;20117;-74
2023/04/26 00:29:38;;;;;;;0.20;0.20;;;3.90;99.90;;;;;;4977359;28;20030;-73
2023/04/26 00:32:04;;;;;;;0.20;0.20;;;3.90;99.90;;;;;;5015918;28;20042;-74
2023/04/26 00:34:36;;;;;;;0.20;0.20;;;3.80;99.90;;;;;;5015218;28;20049;-74
2023/04/26 00:37:03;;;;;;;0.28;0.28;;;3.80;99.90;;;;;;5015566;28;20435;-74
2023/04/26 00:39:29;;;;;;;0.20;0.20;;;3.80;99.90;;;;;;5016197;28;20387;-73
2023/04/26 00:41:55;;;;;;;0.20;0.20;;;3.80;99.90;;;;;;5018574;28;20033;-74
2023/04/26 00:44:21;;;;;;;0.10;0.10;;;3.90;99.90;;;;;;5018956;28;20022;-74
2023/04/26 00:46:47;;;;;;;0.20;0.20;;;4.00;99.90;;;;;;5018888;28;20053;-74
2023/04/26 00:49:17;;;;;;;0.20;0.20;;;4.10;99.90;;;;;;5001330;28;20022;-74
2023/04/26 00:51:44;;;;;;;0.20;0.20;;;4.20;99.90;;;;;;5018767;28;20081;-74
2023/04/26 00:54:10;;;;;;;0.20;0.20;;;4.30;99.90;;;;;;5000757;28;20026;-73
2023/04/26 00:56:37;;;;;;;0.20;0.20;;;4.20;99.90;;;;;;5018461;28;20033;-74
2023/04/26 00:59:03;;;;;;;0.20;0.20;;;4.20;99.90;;;;;;5010878;28;20029;-74
2023/04/26 01:01:32;;;;;;;0.20;0.20;;;4.20;99.90;;;;;;4999436;28;20019;-74
2023/04/26 01:03:58;;;;;;;0.20;0.20;;;4.10;99.90;;;;;;5000339;28;20462;-74
2023/04/26 01:06:24;;;;;;;0.20;0.20;;;4.10;99.90;;;;;;5000264;28;20076;-74
2023/04/26 01:08:52;;;;;;;0.30;0.30;;;4.10;99.90;;;;;;5001314;28;20062;-74
2023/04/26 01:11:21;;;;;;;0.20;0.20;;;4.00;99.90;;;;;;5018842;28;20037;-74
2023/04/26 01:13:47;;;;;;;0.20;0.20;;;4.00;99.90;;;;;;5018775;28;20384;-74
2023/04/26 01:16:14;;;;;;;0.28;0.28;;;3.90;99.90;;;;;;5000392;28;20022;-74
2023/04/26 01:18:43;;;;;;;0.20;0.20;;;3.90;99.90;;;;;;5018042;28;20022;-74
2023/04/26 01:21:10;;;;;;;0.20;0.20;;;3.90;99.90;;;;;;5001078;28;20026;-74
2023/04/26 01:23:35;;;;;;;0.20;0.20;;;3.90;99.90;;;;;;5018417;28;20021;-74
2023/04/26 01:26:01;;;;;;;0.20;0.20;;;3.80;99.90;;;;;;5001057;28;20037;-74
2023/04/26 01:28:26;;;;;;;0.20;0.20;;;3.80;99.90;;;;;;5018121;28;20392;-74
2023/04/26 01:30:52;;;;;;;0.20;0.20;;;3.80;99.90;;;;;;5018384;28;20037;-74
2023/04/26 01:33:17;;;;;;;0.20;0.20;;;3.90;99.90;;;;;;5040307;23;20030;-75
2023/04/26 01:35:43;;;;;;;0.20;0.20;;;3.80;99.90;;;;;;5018960;28;20411;-75
2023/04/26 01:38:08;;;;;;;0.20;0.20;;;3.70;99.90;;;;;;5018724;28;20029;-75
2023/04/26 01:40:35;;;;;;;0.20;0.20;;;3.60;99.90;;;;;;5018152;28;20100;-75
2023/04/26 01:43:02;;;;;;;0.30;0.30;;;3.60;99.90;;;;;;5018338;28;20032;-75
2023/04/26 01:45:29;;;;;;;0.20;0.20;;;3.50;99.90;;;;;;5001004;28;20029;-75
2023/04/26 01:47:55;;;;;;;0.25;0.25;;;3.40;99.90;;;;;;5019028;28;20018;-75
2023/04/26 01:50:23;;;;;;;0.30;0.30;;;3.30;99.90;;;;;;4999351;28;20404;-75
2023/04/26 01:52:49;;;;;;;0.20;0.20;;;3.20;99.90;;;;;;5017916;28;20026;-75
2023/04/26 01:55:14;;;;;;;0.20;0.20;;;3.10;99.90;;;;;;5018059;28;20022;-75
2023/04/26 01:57:40;;;;;;;0.20;0.20;;;3.10;99.90;;;;;;5018578;28;20030;-75
2023/04/26 02:00:08;;;;;;;0.15;0.15;;;3.10;99.90;;;;;;5018511;28;20026;-75
2023/04/26 02:02:36;;;;;;;0.20;0.20;;;3.10;99.90;;;;;;5017602;28;20030;-75
2023/04/26 02:05:02;;;;;;;0.10;0.10;;;3.10;99.90;;;;;;5017703;28;20088;-75
2023/04/26 02:07:27;;;;;;;0.20;0.20;;;3.10;99.90;;;;;;5018053;28;20479;-75
2023/04/26 02:09:53;;;;;;;0.22;0.22;;;3.10;99.90;;;;;;5000621;28;20029;-75
2023/04/26 02:12:18;;;;;;;0.10;0.10;;;3.10;99.90;;;;;;5017885;28;20052;-75
2023/04/26 02:14:47;;;;;;;0.20;0.20;;;3.20;99.90;;;;;;5000177;28;20506;-75
2023/04/26 02:17:13;;;;;;;0.20;0.20;;;3.20;99.90;;;;;;5017441;28;20479;-76
2023/04/26 02:19:39;;;;;;;0.28;0.28;;;3.20;99.90;;;;;;5018378;28;20104;-76
2023/04/26 02:22:05;;;;;;;0.20;0.20;;;3.20;99.90;;;;;;5017936;28;20030;-75
2023/04/26 02:24:33;;;;;;;0.22;0.22;;;3.20;99.90;;;;;;5017616;28;20018;-75
2023/04/26 02:27:02;;;;;;;0.10;0.10;;;3.30;99.90;;;;;;4999687;28;20479;-75
2023/04/26 02:29:28;;;;;;;0.20;0.20;;;3.40;99.90;;;;;;4999887;28;20036;-75
2023/04/26 02:31:53;;;;;;;0.20;0.20;;;3.40;99.90;;;;;;5017974;28;20030;-75
2023/04/26 02:34:19;;;;;;;0.28;0.28;;;3.50;99.90;;;;;;5017615;28;20505;-75
2023/04/26 02:36:46;;;;;;;0.20;0.20;;;3.40;99.90;;;;;;5017304;28;20033;-75
2023/04/26 02:39:12;;;;;;;0.30;0.30;;;3.40;99.90;;;;;;4999495;28;20080;-75
2023/04/26 02:41:38;;;;;;;0.10;0.10;;;3.50;99.90;;;;;;5017265;28;20128;-75
2023/04/26 02:44:03;;;;;;;0.20;0.20;;;3.60;99.90;;;;;;4999988;28;20025;-75
2023/04/26 02:46:29;;;;;;;0.13;0.13;;;3.60;99.90;;;;;;5000445;28;20026;-75
2023/04/26 02:48:54;;;;;;;0.20;0.20;;;3.60;99.90;;;;;;5014329;28;20065;-75
2023/04/26 02:51:20;;;;;;;0.20;0.20;;;3.60;99.90;;;;;;5003147;28;20034;-75
2023/04/26 02:53:45;;;;;;;0.20;0.20;;;3.60;99.90;;;;;;4997344;28;20057;-75
2023/04/26 02:56:11;;;;;;;0.20;0.20;;;3.60;99.90;;;;;;4997686;28;20023;-75
2023/04/26 02:58:36;;;;;;;0.20;0.20;;;3.70;99.90;;;;;;4997235;28;20464;-76
2023/04/26 03:01:03;;;;;;;0.20;0.20;;;3.70;99.90;;;;;;4996990;28;20097;-75
2023/04/26 03:03:29;;;;;;;0.17;0.17;;;3.60;99.90;;;;;;4979275;28;20033;-75
2023/04/26 03:05:55;;;;;;;0.20;0.20;;;3.60;99.90;;;;;;4979915;28;20027;-76
2023/04/26 03:08:20;;;;;;;0.30;0.30;;;3.50;99.90;;;;;;4997467;28;20042;-75
2023/04/26 03:10:46;;;;;;;0.10;0.10;;;3.50;99.90;;;;;;4996918;28;20026;-75
2023/04/26 03:13:11;;;;;;;0.20;0.20;;;3.40;99.90;;;;;;5014160;28;20029;-75
2023/04/26 03:15:37;;;;;;;0.20;0.20;;;3.40;99.90;;;;;;5016497;28;20026;-75
2023/04/26 03:18:03;;;;;;;0.20;0.20;;;3.40;99.90;;;;;;5017323;28;20041;-75
2023/04/26 03:20:28;;;;;;;0.20;0.20;;;3.30;99.90;;;;;;5016530;28;20037;-75
2023/04/26 03:22:54;;;;;;;0.30;0.30;;;3.30;99.90;;;;;;5016293;28;20030;-75
2023/04/26 03:25:20;;;;;;;0.20;0.20;;;3.20;99.90;;;;;;5045850;23;20104;-76
2023/04/26 03:27:45;;;;;;;0.20;0.20;;;3.20;99.90;;;;;;4996874;28;20030;-75
2023/04/26 03:30:12;;;;;;;0.20;0.20;;;3.10;99.90;;;;;;4996883;28;20436;-75
2023/04/26 03:32:37;;;;;;;0.20;0.20;;;3.00;99.90;;;;;;4996705;28;20034;-76
2023/04/26 03:35:03;;;;;;;0.30;0.30;;;3.00;99.90;;;;;;4996165;28;20033;-75
2023/04/26 03:37:29;;;;;;;0.20;0.20;;;2.90;99.90;;;;;;4979516;28;20072;-75
2023/04/26 03:39:54;;;;;;;0.20;0.20;;;2.90;99.90;;;;;;4996898;28;20058;-75
2023/04/26 03:42:20;;;;;;;0.20;0.20;;;2.90;99.90;;;;;;4996000;28;20030;-75
2023/04/26 03:44:49;;;;;;;0.13;0.13;;;3.00;99.90;;;;;;4995828;28;20027;-75
2023/04/26 03:47:14;;;;;;;0.20;0.20;;;3.00;99.90;;;;;;4996416;28;20022;-75
2023/04/26 03:49:40;;;;;;;0.20;0.20;;;3.00;99.90;;;;;;4979252;28;20023;-75
2023/04/26 03:52:06;;;;;;;0.20;0.20;;;3.10;99.90;;;;;;4996746;28;20091;-76
2023/04/26 03:54:32;;;;;;;0.20;0.20;;;3.10;99.90;;;;;;4995585;28;20062;-75
2023/04/26 03:56:58;;;;;;;0.30;0.30;;;3.00;99.90;;;;;;4996317;28;20109;-75
2023/04/26 03:59:23;;;;;;;0.20;0.20;;;3.00;99.90;;;;;;4978862;28;20061;-75
2023/04/26 04:01:49;;;;;;;0.20;0.20;;;2.90;99.90;;;;;;4996738;28;20090;-75
2023/04/26 04:04:15;;;;;;;0.20;0.20;;;2.80;99.90;;;;;;4978837;28;20022;-75
2023/04/26 04:06:43;;;;;;;0.20;0.20;;;2.80;99.90;;;;;;4996689;28;20421;-76
2023/04/26 04:09:08;;;;;;;0.20;0.20;;;2.80;99.90;;;;;;4996144;28;20084;-76
2023/04/26 04:11:34;;;;;;;0.20;0.20;;;2.80;99.90;;;;;;4996928;28;20097;-76
2023/04/26 04:13:59;;;;;;;0.20;0.20;;;2.80;99.90;;;;;;4997483;28;20068;-75
2023/04/26 04:16:28;;;;;;;0.30;0.30;;;2.80;99.90;;;;;;4999845;28;20109;-75
2023/04/26 04:18:55;;;;;;;0.25;0.25;;;2.90;99.90;;;;;;4999421;28;20034;-75
2023/04/26 04:21:21;;;;;;;0.13;0.13;;;2.90;99.90;;;;;;5000505;28;20490;-75
2023/04/26 04:23:47;;;;;;;0.10;0.10;;;2.90;99.90;;;;;;5000509;28;20034;-75
2023/04/26 04:26:18;;;;;;;0.20;0.20;;;3.00;99.90;;;;;;4983181;28;20030;-75
2023/04/26 04:28:45;;;;;;;0.25;0.25;;;2.90;99.90;;;;;;4999901;28;20019;-75
2023/04/26 04:31:11;;;;;;;0.10;0.10;;;3.00;99.90;;;;;;4982649;28;20034;-75
2023/04/26 04:33:37;;;;;;;0.20;0.20;;;3.00;99.90;;;;;;5052544;23;20034;-75
2023/04/26 04:36:03;;;;;;;0.28;0.28;;;3.10;99.90;;;;;;5039862;28;20030;-75
2023/04/26 04:38:29;;;;;;;0.30;0.30;;;3.20;99.90;;;;;;5022019;28;20049;-75
2023/04/26 04:40:55;;;;;;;0.20;0.20;;;3.20;99.90;;;;;;5039174;28;20475;-75
2023/04/26 04:43:22;;;;;;;0.25;0.25;;;3.30;99.90;;;;;;5038425;28;20025;-75
2023/04/26 04:45:51;;;;;;;0.20;0.20;;;3.40;99.90;;;;;;5021849;28;20403;-75
2023/04/26 04:48:17;;;;;;;0.22;0.22;;;3.50;99.90;;;;;;5039455;28;20434;-75
2023/04/26 04:50:42;;;;;;;0.20;0.20;;;3.60;99.90;;;;;;5039503;28;20021;-75
2023/04/26 04:53:08;;;;;;;0.20;0.20;;;3.60;99.90;;;;;;5038490;28;20501;-75
2023/04/26 04:55:35;;;;;;;0.20;0.20;;;3.60;99.90;;;;;;5016699;23;20038;-75
2023/04/26 04:58:02;;;;;;;0.20;0.20;;;3.70;99.90;;;;;;5001992;28;20030;-75
2023/04/26 05:00:28;;;;;;;0.20;0.20;;;3.80;99.90;;;;;;5001858;28;20041;-75
2023/04/26 05:02:56;;;;;;;0.20;0.20;;;3.90;99.90;;;;;;4999460;28;20038;-75
2023/04/26 05:05:22;;;;;;;0.28;0.28;;;4.00;99.90;;;;;;4997346;28;20396;-75
2023/04/26 05:07:48;;;;;;;0.30;0.30;;;4.20;99.90;;;;;;4999265;28;20023;-75
2023/04/26 05:10:13;;;;;;;0.20;0.20;;;4.20;99.90;;;;;;4999820;28;20026;-75
2023/04/26 05:12:39;;;;;;;0.20;0.20;;;4.40;99.90;;;;;;4999896;28;20080;-76
2023/04/26 05:15:05;;;;;;;0.10;0.10;;;4.50;99.90;;;;;;4999634;28;20022;-75
2023/04/26 05:17:32;;;;;;;0.20;0.20;;;4.70;99.90;;;;;;4998503;28;20057;-75
2023/04/26 05:19:58;;;;;;;0.17;0.17;;;4.90;99.90;;;;;;4999211;28;20026;-75
2023/04/26 05:22:25;;;;;;;0.20;0.20;;;4.80;99.90;;;;;;5011397;28;20029;-75
2023/04/26 05:24:51;;;;;;;0.20;0.20;;;4.80;99.90;;;;;;5018565;28;20535;-75
2023/04/26 05:27:16;;;;;;;0.20;0.20;;;4.80;99.90;;;;;;5000294;28;20061;-75
2023/04/26 05:29:42;;;;;;;0.30;0.30;;;4.90;99.90;;;;;;5018881;28;20018;-75
2023/04/26 05:32:07;;;;;;;0.20;0.20;;;4.90;99.90;;;;;;5018992;28;20025;-75
2023/04/26 05:34:33;;;;;;;0.20;0.20;;;5.10;99.90;;;;;;5001140;28;20033;-75
2023/04/26 05:37:01;;;;;;;0.20;0.20;;;5.30;99.90;;;;;;5018351;28;20033;-76
2023/04/26 05:39:30;;;;;;;0.10;0.10;;;5.40;99.90;;;;;;5018622;28;20025;-76
2023/04/26 05:41:56;;;;;;;0.20;0.20;;;5.50;99.90;;;;;;5000961;28;20026;-75
2023/04/26 05:44:21;;;;;;;0.20;0.20;;;5.50;99.90;;;;;;5047235;23;20045;-75
2023/04/26 05:46:47;;;;;;;0.20;0.20;;;5.40;99.90;;;;;;5018728;28;20029;-75
2023/04/26 05:49:12;;;;;;;0.10;0.10;;;5.10;99.90;;;;;;5018489;28;20014;-75
2023/04/26 05:51:38;;;;;;;0.20;0.20;;;4.90;99.90;;;;;;5017933;28;20097;-75
2023/04/26 05:54:04;;;;;;;0.20;0.20;;;4.70;99.90;;;;;;5017888;28;20026;-75
2023/04/26 05:56:29;;;;;;;0.20;0.20;;;4.60;99.90;;;;;;5018625;28;20028;-75
2023/04/26 05:58:58;;;;;;;0.30;0.30;;;4.60;99.90;;;;;;5000138;28;20085;-75
2023/04/26 06:01:23;;;;;;;0.20;0.20;;;4.60;99.90;;;;;;4978979;28;20062;-75
2023/04/26 06:03:50;;;;;;;0.20;0.20;;;4.80;99.90;;;;;;4978760;28;20035;-75
2023/04/26 06:06:15;;;;;;;0.20;0.20;;;4.90;99.90;;;;;;4979239;28;20023;-75
2023/04/26 06:08:41;;;;;;;0.17;0.17;;;5.20;99.90;;;;;;4979286;28;20050;-75
2023/04/26 06:11:07;;;;;;;0.20;0.20;;;5.40;99.90;;;;;;4978789;28;20116;-76
2023/04/26 06:13:32;;;;;;;0.28;0.28;;;5.50;99.90;;;;;;4978294;28;20030;-75
2023/04/26 06:15:58;;;;;;;0.20;0.20;;;5.70;99.90;;;;;;4979421;28;20035;-75
2023/04/26 06:18:24;;;;;;;0.20;0.20;;;5.90;99.90;;;;;;4979269;28;20022;-75
2023/04/26 06:20:50;;;;;;;0.20;0.20;;;6.10;99.90;;;;;;4978792;28;20034;-75
2023/04/26 06:23:16;;;;;;;0.20;0.20;;;6.00;99.90;;;;;;4960547;28;20027;-75
2023/04/26 06:25:43;;;;;;;0.13;0.13;;;6.20;99.90;;;;;;4961250;28;20019;-76
2023/04/26 06:28:12;;;;;;;0.20;0.20;;;6.30;99.90;;;;;;4978762;28;20484;-75
2023/04/26 06:30:38;;;;;;;0.20;0.20;;;6.30;99.90;;;;;;4979050;28;20142;-75
2023/04/26 06:33:04;;;;;;;0.20;0.20;;;6.10;99.90;;;;;;4978323;28;20047;-75
2023/04/26 06:35:30;;;;;;;0.20;0.20;;;5.80;99.90;;;;;;4977992;28;20054;-76
2023/04/26 06:37:55;;;;;;;0.20;0.20;;;5.80;99.90;;;;;;4977617;28;20023;-75
2023/04/26 06:40:21;;;;;;;0.28;0.28;;;5.90;99.90;;;;;;4978576;28;20144;-76
2023/04/26 06:42:46;;;;;;;0.20;0.20;;;5.90;99.90;;;;;;4978600;28;20034;-75
2023/04/26 06:45:12;;;;;;;0.20;0.20;;;5.80;99.90;;;;;;4967611;28;20458;-75
2023/04/26 06:47:38;;;;;;;0.10;0.10;;;5.80;99.90;;;;;;4997166;28;20392;-75
2023/04/26 06:50:04;;;;;;;0.20;0.20;;;5.90;99.90;;;;;;4980213;28;20027;-75
2023/04/26 06:52:30;;;;;;;0.20;0.20;;;6.10;99.90;;;;;;4997813;28;20054;-76
2023/04/26 06:54:55;;;;;;;0.20;0.20;;;6.30;99.90;;;;;;5076152;23;20084;-75
2023/04/26 06:57:21;;;;;;;0.30;0.30;;;6.40;99.90;;;;;;5056316;28;20021;-75
2023/04/26 06:59:47;;;;;;;0.10;0.10;;;6.50;99.90;;;;;;5056694;28;20102;-75
2023/04/26 07:02:12;;;;;;;0.20;0.20;;;6.70;99.90;;;;;;5056862;28;20025;-75
2023/04/26 07:04:38;;;;;;;0.17;0.17;;;6.80;99.90;;;;;;5056564;28;20017;-75
2023/04/26 07:07:03;;;;;;;0.13;0.13;;;7.10;99.90;;;;;;5056118;28;20021;-75
2023/04/26 07:09:29;;;;;;;0.10;0.10;;;7.30;99.90;;;;;;5056128;28;20467;-76
2023/04/26 07:11:55;;;;;;;0.20;0.20;;;7.50;99.90;;;;;;5057054;28;20100;-76
2023/04/26 07:14:20;;;;;;;0.22;0.22;;;7.70;99.90;;;;;;5055176;28;20104;-75
2023/04/26 07:16:46;;;;;;;0.30;0.30;;;7.80;99.90;;;;;;5055873;28;20778;-75
2023/04/26 07:19:11;;;;;;;0.22;0.22;;;8.00;99.90;;;;;;5056198;28;20021;-76
2023/04/26 07:21:37;;;;;;;0.20;0.20;;;8.20;99.90;;;;;;5055372;28;20036;-76
2023/04/26 07:24:03;;;;;;;0.10;0.10;;;8.20;99.90;;;;;;5056454;28;20031;-75
2023/04/26 07:26:28;;;;;;;0.20;0.20;;;8.10;99.90;;;;;;5056518;28;20025;-75
2023/04/26 07:28:56;;;;;;;0.20;0.20;;;8.00;99.90;;;;;;5055729;28;20103;-75
2023/04/26 07:31:22;;;;;;;0.25;0.25;;;7.70;99.90;;;;;;5055980;28;20063;-75
2023/04/26 07:33:48;;;;;;;0.20;0.20;;;7.50;99.90;;;;;;5056572;28;20418;-75
2023/04/26 07:36:13;;;;;;;0.30;0.30;;;7.60;99.90;;;;;;5039416;23;20046;-74
2023/04/26 07:38:39;;;;;;;0.28;0.28;;;7.60;99.90;;;;;;4995880;28;20031;-74
2023/04/26 07:41:05;;;;;;;0.20;0.20;;;7.80;99.90;;;;;;4996420;28;20029;-74
2023/04/26 07:43:30;;;;;;;0.20;0.20;;;7.90;99.90;;;;;;4995993;28;20049;-74
2023/04/26 07:46:03;;;;;;;0.20;0.20;;;8.00;99.90;;;;;;4996634;28;20022;-74
2023/04/26 07:48:29;;;;;;;0.28;0.28;;;8.10;99.90;;;;;;4996522;28;20049;-74
2023/04/26 07:50:54;;;;;;;0.20;0.20;;;8.50;99.90;;;;;;4996013;28;20030;-72
2023/04/26 07:53:21;;;;;;;0.20;0.20;;;8.80;99.90;;;;;;4978304;28;20054;-74
2023/04/26 07:55:46;;;;;;;0.13;0.13;;;8.50;99.90;;;;;;4996838;28;20396;-74
2023/04/26 07:58:13;;;;;;;0.15;0.15;;;8.20;99.90;;;;;;4996072;28;20026;-74
2023/04/26 08:00:39;;;;;;;0.20;0.20;;;8.00;99.90;;;;;;4978592;28;20038;-74
2023/04/26 08:03:07;;;;;;;0.20;0.20;;;7.80;99.90;;;;;;4995960;28;20057;-74
2023/04/26 08:05:33;;;;;;;0.20;0.20;;;7.90;99.90;;;;;;4995733;28;20447;-74
2023/04/26 08:08:00;;;;;;;0.20;0.20;;;8.30;99.90;;;;;;4995981;28;20019;-74
2023/04/26 08:10:26;;;;;;;0.22;0.22;;;8.70;99.90;;;;;;4996150;28;20030;-74
2023/04/26 08:12:52;;;;;;;0.20;0.20;;;9.10;99.90;;;;;;4995937;28;20026;-73
2023/04/26 08:15:17;;;;;;;0.20;0.20;;;9.50;99.90;;;;;;4995568;28;20365;-74
2023/04/26 08:17:43;;;;;;;0.20;0.20;;;9.00;99.90;;;;;;4978330;28;20118;-74
2023/04/26 08:20:09;;;;;;;0.10;0.10;;;8.80;99.90;;;;;;4996561;28;20025;-74
2023/04/26 08:22:35;;;;;;;0.20;0.20;;;8.80;99.90;;;;;;4995638;28;20034;-74
2023/04/26 08:25:01;;;;;;;0.20;0.20;;;8.90;99.90;;;;;;4978353;28;20019;-74
2023/04/26 08:27:27;;;;;;;0.10;0.10;;;9.00;99.90;;;;;;4995483;28;20026;-72
2023/04/26 08:29:52;;;;;;;0.20;0.20;;;8.90;99.90;;;;;;4995891;28;20026;-75
2023/04/26 08:32:18;;;;;;;0.20;0.20;;;9.00;99.90;;;;;;4996099;28;20057;-74
2023/04/26 08:34:43;;;;;;;0.20;0.20;;;9.00;99.90;;;;;;4995238;28;20041;-72
2023/04/26 08:37:09;;;;;;;0.20;0.20;;;8.90;99.90;;;;;;4995509;28;20492;-74
2023/04/26 08:39:35;;;;;;;0.15;0.15;;;8.80;99.90;;;;;;4978333;28;20030;-74
2023/04/26 08:42:11;;;;;;;0.20;0.20;;;8.80;99.90;;;;;;4995922;28;20053;-74
2023/04/26 08:44:40;;;;;;;0.25;0.25;;;8.90;99.90;;;;;;4995921;28;20029;-74
2023/04/26 08:47:21;;;;;;;0.10;0.10;;;9.30;99.90;;;;;;4995634;28;20407;-74
2023/04/26 08:49:58;;;;;;;0.25;0.25;;;9.50;99.90;;;;;;4995614;28;20507;-73
2023/04/26 08:52:27;;;;;;;0.20;0.20;;;9.90;99.90;;;;;;4995787;28;20396;-74
2023/04/26 08:54:55;;;;;;;0.20;0.20;;;8.70;99.90;;;;;;4994757;28;20034;-73
2023/04/26 08:57:21;;;;;;;0.10;0.10;;;7.20;99.90;;;;;;4995431;28;20039;-73
2023/04/26 08:59:47;;;;;;;0.20;0.20;;;6.70;99.90;;;;;;4995397;28;20027;-73
2023/04/26 09:02:21;;;;;;;0.15;0.15;;;6.40;99.90;;;;;;4998489;28;20034;-73
2023/04/26 09:04:47;;;;;;;0.25;0.25;;;6.20;99.90;;;;;;4998982;28;20539;-73
2023/04/26 09:07:46;;;;;;;0.20;0.20;;;6.10;99.90;;;;;;4998968;28;20030;-73
2023/04/26 09:10:16;;;;;;;0.10;0.10;;;6.60;99.90;;;;;;4980886;28;20034;-73
2023/04/26 09:12:42;;;;;;;0.20;0.20;;;7.20;99.90;;;;;;4998260;28;20050;-73
2023/04/26 09:15:08;;;;;;;0.22;0.22;;;7.60;99.90;;;;;;4998390;28;20019;-73
2023/04/26 09:17:37;;;;;;;0.17;0.17;;;8.00;99.90;;;;;;4981420;28;20032;-73
2023/04/26 09:20:35;;;;;;;0.20;0.20;;;8.60;99.90;;;;;;4997514;28;20153;-73
2023/04/26 09:23:08;;;;;;;0.20;0.20;;;8.90;99.90;;;;;;4939889;28;20049;-73
2023/04/26 09:25:35;;;;;;;0.30;0.30;;;8.30;99.90;;;;;;4998769;28;20030;-73
2023/04/26 09:28:02;;;;;;;0.20;0.20;;;7.90;99.90;;;;;;4997305;28;20034;-73
2023/04/26 09:30:29;;;;;;;0.20;0.20;;;7.30;99.90;;;;;;4980632;28;20049;-74
2023/04/26 09:33:03;;;;;;;0.30;0.30;;;7.10;99.90;;;;;;4980936;28;20392;-73
2023/04/26 09:35:34;;;;;;;0.20;0.20;;;7.10;99.90;;;;;;4981052;28;20062;-74
2023/04/26 09:38:07;;;;;;;0.20;0.20;;;7.70;99.90;;;;;;4998346;28;20026;-74
2023/04/26 09:40:39;;;;;;;0.10;0.10;;;8.30;99.90;;;;;;4997668;28;20030;-74
2023/04/26 09:43:06;;;;;;;0.20;0.20;;;8.20;99.90;;;;;;4998805;28;20042;-75
2023/04/26 09:45:49;;;;;;;0.20;0.20;;;7.80;99.90;;;;;;5004030;23;20521;-74
2023/04/26 09:48:21;;;;;;;0.20;0.20;;;7.40;99.90;;;;;;4998519;28;20029;-73
2023/04/26 09:50:48;;;;;;;0.13;0.13;;;7.30;99.90;;;;;;4997522;28;20021;-74
2023/04/26 09:53:36;;;;;;;0.20;0.20;;;7.60;99.90;;;;;;4997775;28;20026;-73
2023/04/26 09:56:09;;;;;;;0.20;0.20;;;8.10;99.90;;;;;;4983795;28;20022;-74
2023/04/26 09:58:57;;;;;;;0.10;0.10;;;7.60;99.90;;;;;;4997556;28;20049;-74
2023/04/26 10:01:22;;;;;;;0.20;0.20;;;6.90;99.90;;;;;;4997369;28;20082;-73
2023/04/26 10:03:48;;;;;;;0.10;0.10;;;6.70;99.90;;;;;;4997336;28;20109;-75
2023/04/26 10:06:15;;;;;;;0.20;0.20;;;6.50;99.90;;;;;;5043397;23;20580;-78
2023/04/26 10:08:40;;;;;;;0.20;0.20;;;6.40;99.90;;;;;;5019820;28;20427;-74
2023/04/26 10:11:08;;;;;;;0.20;0.20;;;6.90;99.90;;;;;;5036126;28;20025;-74
2023/04/26 10:13:34;;;;;;;0.20;0.20;;;7.40;99.90;;;;;;5018648;28;20060;-74
2023/04/26 10:16:03;;;;;;;0.20;0.20;;;8.20;99.90;;;;;;5036377;28;20021;-74
2023/04/26 10:18:30;;;;;;;0.20;0.20;;;8.80;99.90;;;;;;5036446;28;20036;-74
2023/04/26 10:21:01;;;;;;;0.17;0.17;;;9.20;99.90;;;;;;5036971;28;20124;-74
2023/04/26 10:23:27;;;;;;;0.30;0.30;;;9.40;99.90;;;;;;5036958;28;20109;-74
2023/04/26 10:25:54;;;;;;;0.10;0.10;;;9.20;99.90;;;;;;5029412;28;20073;-75
2023/04/26 10:28:45;;;;;;;0.20;0.20;;;9.40;99.90;;;;;;5019661;28;20499;-74
2023/04/26 10:31:11;;;;;;;0.20;0.20;;;9.80;99.90;;;;;;5019214;28;20033;-73
2023/04/26 10:33:37;;;;;;;0.20;0.20;;;10.10;99.90;;;;;;5016991;28;20030;-74
2023/04/26 10:36:12;;;;;;;0.20;0.20;;;10.10;99.90;;;;;;5022596;28;20029;-74
2023/04/26 10:38:59;;;;;;;0.20;0.20;;;9.90;99.90;;;;;;5026158;28;20104;-74
2023/04/26 10:41:30;;;;;;;0.20;0.20;;;9.80;99.90;;;;;;5027358;28;20029;-74
2023/04/26 10:43:58;;;;;;;0.10;0.10;;;9.00;99.90;;;;;;5011080;28;20057;-75
2023/04/26 10:46:39;;;;;;;0.20;0.20;;;7.80;99.90;;;;;;5031620;28;20079;-76
2023/04/26 10:49:16;;;;;;;0.20;0.20;;;7.30;99.90;;;;;;5031755;28;20029;-76
2023/04/26 10:52:10;;;;;;;0.20;0.20;;;7.10;99.90;;;;;;5013022;28;20049;-76
2023/04/26 10:54:46;;;;;;;0.20;0.20;;;6.80;99.90;;;;;;5029370;28;20054;-75
2023/04/26 10:57:11;;;;;;;0.20;0.20;;;6.30;99.90;;;;;;5029844;28;20484;-74
2023/04/26 10:59:37;;;;;;;0.10;0.10;;;6.00;99.90;;;;;;5025275;28;20036;-74
2023/04/26 11:02:03;;;;;;;0.20;0.20;;;5.60;99.90;;;;;;5019960;28;20105;-73
2023/04/26 11:04:53;;;;;;;0.30;0.30;;;5.40;99.90;;;;;;5034527;28;20013;-74
2023/04/26 11:07:37;;;;;;;0.20;0.20;;;5.50;99.90;;;;;;5035577;28;20030;-74
2023/04/26 11:10:09;;;;;;;0.20;0.20;;;5.90;99.90;;;;;;5034828;28;20422;-73
2023/04/26 11:12:35;;;;;;;0.20;0.20;;;6.60;99.90;;;;;;5035812;28;20026;-73
2023/04/26 11:15:01;;;;;;;0.17;0.17;;;7.20;99.90;;;;;;5035268;28;20089;-73
2023/04/26 11:17:26;;;;;;;0.17;0.17;;;8.00;99.90;;;;;;5035034;28;20056;-73
2023/04/26 11:19:52;;;;;;;0.20;0.20;;;8.40;99.90;;;;;;5035503;28;20088;-74
2023/04/26 11:22:21;;;;;;;0.20;0.20;;;8.00;99.90;;;;;;5017646;28;20053;-74
2023/04/26 11:24:47;;;;;;;0.10;0.10;;;7.80;99.90;;;;;;5017757;28;20021;-73
2023/04/26 11:27:12;;;;;;;0.15;0.15;;;7.50;99.90;;;;;;5017717;28;20026;-73
2023/04/26 11:29:38;;;;;;;0.20;0.20;;;7.80;99.90;;;;;;5035394;28;20029;-73
2023/04/26 11:32:04;;;;;;;0.20;0.20;;;8.40;99.90;;;;;;5021268;28;20018;-73
2023/04/26 11:34:34;;;;;;;0.20;0.20;;;9.00;99.90;;;;;;5022376;28;20018;-73
2023/04/26 11:37:01;;;;;;;0.20;0.20;;;9.40;99.90;;;;;;5022263;28;20533;-73
2023/04/26 11:39:27;;;;;;;0.20;0.20;;;9.40;99.90;;;;;;5035336;28;20061;-73
2023/04/26 11:42:07;;;;;;;0.20;0.20;;;9.20;99.90;;;;;;5034801;28;20022;-73
2023/04/26 11:44:32;;;;;;;0.20;0.20;;;9.10;99.90;;;;;;5017659;28;20068;-73
2023/04/26 11:47:02;;;;;;;0.20;0.20;;;9.60;99.90;;;;;;5034475;28;20022;-73
2023/04/26 11:49:29;;;;;;;0.20;0.20;;;9.80;99.90;;;;;;5016572;28;20024;-73
2023/04/26 11:51:55;;;;;;;0.10;0.10;;;9.60;99.90;;;;;;5034975;28;20022;-73
2023/04/26 11:54:32;;;;;;;0.17;0.17;;;8.80;99.90;;;;;;5035147;28;20027;-71
2023/04/26 11:56:58;;;;;;;0.20;0.20;;;8.10;99.90;;;;;;5034838;28;20032;-73
2023/04/26 11:59:30;;;;;;;0.20;0.20;;;7.50;99.90;;;;;;5034321;28;20024;-73
2023/04/26 12:02:04;;;;;;;0.20;0.20;;;7.30;99.90;;;;;;5034732;28;20036;-73
2023/04/26 12:04:30;;;;;;;0.20;0.20;;;7.20;99.90;;;;;;5033407;28;20052;-73
2023/04/26 12:06:57;;;;;;;0.20;0.20;;;7.40;99.90;;;;;;5034563;28;20026;-73
2023/04/26 12:09:27;;;;;;;0.17;0.17;;;8.20;99.90;;;;;;5034193;28;20017;-73
2023/04/26 12:12:06;;;;;;;0.10;0.10;;;9.30;99.90;;;;;;5017298;28;20415;-73
2023/04/26 12:14:36;;;;;;;0.17;0.17;;;10.30;99.90;;;;;;5034599;28;20041;-74
2023/04/26 12:17:04;;;;;;;0.20;0.20;;;10.50;99.90;;;;;;5034846;28;20029;-73
2023/04/26 12:19:35;;;;;;;0.20;0.20;;;11.50;99.90;;;;;;5015780;28;20483;-73
2023/04/26 12:22:01;;;;;;;0.10;0.10;;;12.50;99.90;;;;;;5034012;28;20076;-73
2023/04/26 12:24:33;;;;;;;0.20;0.20;;;12.30;99.90;;;;;;5034204;28;20033;-74
2023/04/26 12:27:03;;;;;;;0.25;0.25;;;10.90;99.90;;;;;;5033163;28;20080;-73
2023/04/26 12:29:29;;;;;;;0.20;0.20;;;10.50;99.90;;;;;;5034518;28;20024;-73
2023/04/26 12:31:55;;;;;;;0.20;0.20;;;10.70;99.90;;;;;;5033625;28;20022;-73
2023/04/26 12:34:21;;;;;;;0.20;0.20;;;11.30;99.90;;;;;;5034265;28;20036;-73
2023/04/26 12:36:47;;;;;;;0.20;0.20;;;10.90;99.90;;;;;;5020537;28;20383;-73
2023/04/26 12:39:14;;;;;;;0.20;0.20;;;9.70;99.90;;;;;;5019281;28;20018;-73
2023/04/26 12:41:44;;;;;;;0.17;0.17;;;8.70;99.90;;;;;;5037947;28;20028;-73
2023/04/26 12:44:11;;;;;;;0.20;0.20;;;8.30;99.90;;;;;;5037692;28;20479;-73
2023/04/26 12:46:37;;;;;;;0.20;0.20;;;8.40;99.90;;;;;;5037550;28;20022;-73
2023/04/26 12:49:03;;;;;;;0.20;0.20;;;8.60;99.90;;;;;;5037464;28;20029;-73
2023/04/26 12:51:29;;;;;;;0.20;0.20;;;8.60;99.90;;;;;;5037206;28;20391;-73
2023/04/26 12:53:55;;;;;;;0.20;0.20;;;8.50;99.90;;;;;;5037957;28;20029;-73
2023/04/26 12:56:21;;;;;;;0.30;0.30;;;8.50;99.90;;;;;;5037864;28;20026;-73
2023/04/26 12:58:47;;;;;;;0.20;0.20;;;8.50;99.90;;;;;;5036347;28;20095;-73